createdAt,value
2019-02-06T01:02:28.994Z,10.63
2019-02-06T01:32:26.357Z,10.60
2019-02-06T01:35:14.143Z,11.12
2019-02-06T01:38:01.932Z,10.45
2019-02-06T01:40:49.793Z,10.08
2019-02-06T01:43:39.294Z,9.63
2019-02-06T01:46:27.330Z,9.95
2019-02-06T01:49:15.155Z,10.18
2019-02-06T01:52:03.395Z,10.55
2019-02-06T01:54:51.668Z,11.08
2019-02-06T03:03:45.078Z,10.68
2019-02-06T03:18:25.057Z,12.60
2019-02-06T03:21:12.976Z,12.35
2019-02-06T03:24:01.084Z,12.60
2019-02-06T03:26:48.872Z,12.60
2019-02-06T03:29:36.755Z,14.35
2019-02-06T03:32:24.599Z,13.93
2019-02-06T03:35:14.180Z,13.30
2019-02-06T03:38:02.025Z,14.95
2019-02-06T03:40:49.875Z,13.43
2019-02-06T03:43:38.040Z,13.78
2019-02-06T03:46:25.854Z,13.90
2019-02-06T03:48:54.614Z,12.82
2019-02-06T03:51:42.444Z,13.88
2019-02-06T03:54:30.229Z,13.30
2019-02-06T03:57:18.547Z,14.43
2019-02-06T04:23:54.738Z,18.57
2019-02-06T04:29:48.461Z,17.73
2019-02-06T05:32:30.852Z,22.85
2019-02-06T05:56:18.869Z,24.95
2019-02-06T05:58:59.452Z,28.12
2019-02-06T06:37:57.220Z,27.35
2019-02-06T06:43:27.508Z,30.37
2019-02-06T06:46:08.084Z,28.65
2019-02-06T06:48:48.853Z,28.25
2019-02-06T06:54:27.933Z,30.77
2019-02-06T07:09:07.629Z,29.65
2019-02-06T07:11:46.032Z,30.75
2019-02-06T08:23:42.536Z,25.20
2019-02-06T09:26:36.365Z,21.90
2019-02-06T09:53:10.579Z,20.08
2019-02-06T10:19:53.342Z,16.50
2019-02-06T10:28:45.714Z,17.12
2019-02-06T10:34:39.651Z,17.48
2019-02-06T10:52:30.339Z,11.45
2019-02-06T10:55:11.118Z,16.17
2019-02-06T11:33:48.721Z,12.93
2019-02-06T11:45:41.879Z,11.55
2019-02-06T12:06:30.177Z,9.85
2019-02-06T12:15:22.543Z,10.80
2019-02-06T12:27:00.234Z,8.18
2019-02-06T13:20:23.876Z,9.33
2019-02-06T13:38:01.307Z,7.35
2019-02-06T15:04:21.762Z,10.25
2019-02-06T15:07:00.754Z,9.73
2019-02-06T15:15:53.461Z,10.13
2019-02-06T15:18:34.222Z,9.90
2019-02-06T15:21:12.881Z,9.50
2019-02-06T16:56:32.098Z,12.78
2019-02-06T17:05:31.145Z,12.23
2019-02-06T17:08:08.056Z,11.88
2019-02-06T17:17:01.134Z,13.20
2019-02-06T17:46:50.490Z,13.65
2019-02-06T17:52:44.006Z,13.98
2019-02-06T17:59:05.882Z,13.10
2019-02-06T18:01:53.729Z,13.40
2019-02-06T19:25:18.211Z,12.07
2019-02-06T19:27:47.241Z,11.10
2019-02-06T19:30:27.635Z,11.63
2019-02-06T19:32:56.802Z,12.18
2019-02-06T19:35:25.829Z,14.65
2019-02-06T19:37:54.701Z,11.00
2019-02-06T19:40:23.750Z,10.68
2019-02-06T19:43:00.396Z,10.72
2019-02-06T19:45:23.759Z,9.75
2019-02-06T19:47:52.576Z,9.90
2019-02-06T19:50:24.837Z,11.22
2019-02-06T19:52:54.746Z,10.55
2019-02-06T19:55:24.345Z,10.18
2019-02-06T19:57:53.293Z,10.95
2019-02-06T20:00:25.190Z,11.50
2019-02-06T20:02:54.295Z,10.95
2019-02-06T20:05:23.683Z,11.80
2019-02-06T20:07:53.554Z,11.35
2019-02-06T20:10:28.199Z,12.40
2019-02-06T20:12:57.078Z,11.28
2019-02-06T20:15:25.878Z,12.85
2019-02-06T20:17:54.798Z,14.38
2019-02-06T20:20:26.209Z,14.28
2019-02-06T20:22:55.283Z,11.70
2019-02-06T20:25:24.847Z,13.62
2019-02-06T20:27:54.422Z,13.00
2019-02-06T20:30:25.476Z,13.83
2019-02-06T20:32:54.783Z,13.13
2019-02-06T20:35:24.475Z,12.75
2019-02-06T20:37:54.408Z,11.75
2019-02-06T20:40:31.900Z,12.58
2019-02-06T20:43:00.669Z,12.25
2019-02-06T20:45:29.491Z,12.35
2019-02-06T20:47:58.430Z,11.95
2019-02-06T20:50:32.434Z,11.83
2019-02-06T20:53:01.626Z,12.80
2019-02-06T20:55:31.446Z,11.43
2019-02-06T20:58:01.342Z,13.83
2019-02-06T21:00:35.755Z,12.05
2019-02-06T21:03:05.807Z,11.80
2019-02-06T21:05:34.649Z,17.62
2019-02-06T21:08:04.249Z,12.80
2019-02-06T21:10:34.724Z,12.13
2019-02-06T21:13:03.499Z,13.00
2019-02-06T21:15:33.926Z,13.70
2019-02-06T21:18:02.725Z,13.18
2019-02-06T21:20:31.587Z,12.33
2019-02-06T21:23:00.819Z,12.88
2019-02-06T21:25:29.597Z,13.95
2019-02-06T21:27:58.488Z,12.78
2019-02-06T21:30:35.955Z,13.28
2019-02-06T21:33:05.152Z,12.70
2019-02-06T21:35:34.007Z,12.78
2019-02-06T21:38:03.194Z,14.03
2019-02-06T21:40:38.163Z,11.55
2019-02-06T21:43:07.577Z,13.68
2019-02-06T21:45:36.827Z,12.20
2019-02-06T21:48:06.229Z,13.50
2019-02-06T21:50:35.507Z,13.00
2019-02-06T21:53:04.495Z,11.83
2019-02-06T21:55:33.346Z,12.90
2019-02-06T21:58:02.336Z,13.30
2019-02-06T22:00:39.972Z,13.55
2019-02-06T22:03:10.855Z,13.28
2019-02-06T22:05:39.462Z,12.85
2019-02-06T22:08:08.444Z,12.18
2019-02-06T22:10:37.200Z,12.63
2019-02-06T22:13:06.075Z,12.85
2019-02-06T22:15:34.994Z,12.93
2019-02-06T22:18:03.869Z,11.90
2019-02-06T22:20:32.717Z,12.98
2019-02-06T22:23:01.514Z,11.60
2019-02-06T22:25:30.358Z,11.63
2019-02-06T22:27:59.178Z,12.20
2019-02-06T22:30:29.489Z,11.83
2019-02-06T22:32:58.523Z,11.80
2019-02-06T22:35:27.749Z,11.57
2019-02-06T22:37:56.868Z,10.63
2019-02-06T22:40:26.467Z,12.07
2019-02-06T22:42:55.301Z,12.90
2019-02-06T22:45:25.993Z,11.83
2019-02-06T22:47:54.918Z,12.00
2019-02-06T22:50:26.055Z,11.57
2019-02-06T22:52:55.037Z,12.13
2019-02-06T22:55:24.167Z,10.90
2019-02-06T22:57:53.774Z,11.83
2019-02-06T23:00:47.882Z,11.60
2019-02-06T23:03:19.911Z,11.20
2019-02-06T23:05:49.162Z,11.22
2019-02-06T23:08:18.255Z,12.20
2019-02-06T23:10:47.376Z,10.95
2019-02-06T23:13:16.440Z,12.10
2019-02-06T23:15:45.217Z,11.68
2019-02-06T23:18:14.294Z,10.85
2019-02-06T23:20:43.186Z,11.93
2019-02-06T23:23:12.001Z,11.93
2019-02-06T23:25:43.147Z,11.93
2019-02-06T23:28:11.344Z,11.93
2019-02-06T23:30:40.258Z,10.23
2019-02-06T23:33:09.029Z,11.08
2019-02-06T23:35:37.798Z,9.93
2019-02-06T23:38:06.877Z,9.55
2019-02-06T23:40:35.743Z,10.48
2019-02-06T23:43:05.288Z,11.08
2019-02-06T23:45:34.117Z,10.20
2019-02-06T23:48:02.991Z,10.35
2019-02-06T23:50:31.842Z,10.28
2019-02-06T23:53:00.880Z,9.68
2019-02-06T23:55:30.060Z,10.20
2019-02-06T23:57:59.443Z,10.30
